Time;durP1;ratioP1;P1;durP2;ratioP2;P2;SDS_P1;SDS_P2;PMS_P1;PMS_P2;Temp;Humidity;BMP_temperature;BMP_pressure;BME280_temperature;BME280_humidity;BME280_pressure;Samples;Min_cycle;Max_cycle;Signal;HPM_P1;HPM_P2
2022/06/22 00:00:44;;;;;;;11.4;10.35;;;;;;;18.82;67.88184;94966.42;;;;
2022/06/22 00:01:58;;;;;;;11.4;10.35;;;;;;;18.82;67.88184;94966.42;;;;
2022/06/22 00:03:05;;;;;;;11.4;10.35;;;;;;;18.82;67.88184;94966.42;;;;
2022/06/22 00:04:08;;;;;;;11.4;10.35;;;;;;;18.82;67.88184;94966.42;;;;
2022/06/22 00:05:15;;;;;;;11.95;10.85;;;;;;;18.69;68.47754;94979.42;;;;
2022/06/22 00:06:19;;;;;;;11.95;10.85;;;;;;;18.69;68.47754;94979.42;;;;
2022/06/22 00:07:27;;;;;;;11.95;10.85;;;;;;;18.69;68.47754;94979.42;;;;
2022/06/22 00:08:33;;;;;;;11.95;10.85;;;;;;;18.69;68.47754;94979.42;;;;
2022/06/22 00:09:36;;;;;;;11.95;10.85;;;;;;;18.69;68.47754;94979.42;;;;
2022/06/22 00:10:41;;;;;;;11.95;10.85;;;;;;;18.69;68.47754;94979.42;;;;
2022/06/22 00:11:52;;;;;;;11.95;10.85;;;;;;;18.69;68.47754;94979.42;;;;
2022/06/22 00:12:53;;;;;;;11.95;10.85;;;;;;;18.69;68.47754;94979.42;;;;
2022/06/22 00:13:56;;;;;;;11.95;10.85;;;;;;;18.69;68.47754;94979.42;;;;
2022/06/22 00:15:00;;;;;;;11.95;10.85;;;;;;;18.69;68.47754;94979.42;;;;
2022/06/22 00:16:03;;;;;;;11.95;10.7;;;;;;;18.67;68.95605;94963.34;;;;
2022/06/22 00:17:05;;;;;;;11.95;10.7;;;;;;;18.67;68.95605;94963.34;;;;
2022/06/22 00:18:15;;;;;;;11.95;10.7;;;;;;;18.67;68.95605;94963.34;;;;
2022/06/22 00:19:26;;;;;;;11.95;10.7;;;;;;;18.67;68.95605;94963.34;;;;
2022/06/22 00:20:30;;;;;;;11.95;10.7;;;;;;;18.67;68.95605;94963.34;;;;
2022/06/22 00:21:32;;;;;;;11.95;10.7;;;;;;;18.67;68.95605;94963.34;;;;
2022/06/22 00:22:37;;;;;;;11.95;10.7;;;;;;;18.67;68.95605;94963.34;;;;
2022/06/22 00:23:46;;;;;;;11.95;10.7;;;;;;;18.67;68.95605;94963.34;;;;
2022/06/22 00:24:50;;;;;;;11.95;10.7;;;;;;;18.67;68.95605;94963.34;;;;
2022/06/22 00:25:58;;;;;;;11.8;10.8;;;;;;;18.58;69.39453;94955.45;;;;
2022/06/22 00:27:07;;;;;;;11.8;10.8;;;;;;;18.58;69.39453;94955.45;;;;
2022/06/22 00:28:16;;;;;;;11.8;10.8;;;;;;;18.58;69.39453;94955.45;;;;
2022/06/22 00:29:26;;;;;;;11.8;10.8;;;;;;;18.58;69.39453;94955.45;;;;
2022/06/22 00:30:33;;;;;;;11.8;10.8;;;;;;;18.58;69.39453;94955.45;;;;
2022/06/22 00:31:45;;;;;;;11.8;10.8;;;;;;;18.58;69.39453;94955.45;;;;
2022/06/22 00:33:12;;;;;;;11.8;10.8;;;;;;;18.58;69.39453;94955.45;;;;
2022/06/22 00:34:15;;;;;;;11.8;10.8;;;;;;;18.58;69.39453;94955.45;;;;
2022/06/22 00:35:25;;;;;;;11.8;10.8;;;;;;;18.58;69.39453;94955.45;;;;
2022/06/22 00:36:44;;;;;;;11.65;10.45;;;;;;;18.52;69.9541;94902.59;;;;
2022/06/22 00:37:48;;;;;;;11.65;10.45;;;;;;;18.52;69.9541;94902.59;;;;
2022/06/22 00:38:53;;;;;;;11.65;10.45;;;;;;;18.52;69.9541;94902.59;;;;
2022/06/22 00:39:54;;;;;;;11.65;10.45;;;;;;;18.52;69.9541;94902.59;;;;
2022/06/22 00:40:59;;;;;;;11.65;10.45;;;;;;;18.52;69.9541;94902.59;;;;
2022/06/22 00:42:14;;;;;;;11.65;10.45;;;;;;;18.52;69.9541;94902.59;;;;
2022/06/22 00:43:33;;;;;;;11.65;10.45;;;;;;;18.52;69.9541;94902.59;;;;
2022/06/22 00:44:36;;;;;;;11.65;10.45;;;;;;;18.52;69.9541;94902.59;;;;
2022/06/22 00:45:36;;;;;;;11.65;10.45;;;;;;;18.52;69.9541;94902.59;;;;
2022/06/22 00:46:37;;;;;;;11.65;10.45;;;;;;;18.52;69.9541;94902.59;;;;
2022/06/22 00:47:43;;;;;;;10.45;9.549999;;;;;;;18.47;70.84668;94885.6;;;;
2022/06/22 00:48:46;;;;;;;10.45;9.549999;;;;;;;18.47;70.84668;94885.6;;;;
2022/06/22 00:49:49;;;;;;;10.45;9.549999;;;;;;;18.47;70.84668;94885.6;;;;
2022/06/22 00:50:52;;;;;;;10.45;9.549999;;;;;;;18.47;70.84668;94885.6;;;;
2022/06/22 00:51:58;;;;;;;10.45;9.549999;;;;;;;18.47;70.84668;94885.6;;;;
2022/06/22 00:53:01;;;;;;;10.45;9.549999;;;;;;;18.47;70.84668;94885.6;;;;
2022/06/22 00:54:09;;;;;;;10.45;9.549999;;;;;;;18.47;70.84668;94885.6;;;;
2022/06/22 00:55:15;;;;;;;10.45;9.549999;;;;;;;18.47;70.84668;94885.6;;;;
2022/06/22 00:56:23;;;;;;;10.45;9.549999;;;;;;;18.47;70.84668;94885.6;;;;
2022/06/22 00:57:42;;;;;;;10.45;9.549999;;;;;;;18.47;70.84668;94885.6;;;;
2022/06/22 00:58:49;;;;;;;10.3;9.1;;;;;;;18.56;71.90332;94884.37;;;;
2022/06/22 00:59:58;;;;;;;10.3;9.1;;;;;;;18.56;71.90332;94884.37;;;;
2022/06/22 01:01:01;;;;;;;10.3;9.1;;;;;;;18.56;71.90332;94884.37;;;;
2022/06/22 01:02:06;;;;;;;10.3;9.1;;;;;;;18.56;71.90332;94884.37;;;;
2022/06/22 01:03:29;;;;;;;10.3;9.1;;;;;;;18.56;71.90332;94884.37;;;;
2022/06/22 01:04:38;;;;;;;10.3;9.1;;;;;;;18.56;71.90332;94884.37;;;;
2022/06/22 01:05:46;;;;;;;10.3;9.1;;;;;;;18.56;71.90332;94884.37;;;;
2022/06/22 01:06:53;;;;;;;10.3;9.1;;;;;;;18.56;71.90332;94884.37;;;;
2022/06/22 01:08:00;;;;;;;10.3;9.1;;;;;;;18.56;71.90332;94884.37;;;;
2022/06/22 01:09:10;;;;;;;11.4;9.500002;;;;;;;18.56;72.47363;94865.63;;;;
2022/06/22 01:10:23;;;;;;;11.4;9.500002;;;;;;;18.56;72.47363;94865.63;;;;
2022/06/22 01:12:35;;;;;;;11.4;9.500002;;;;;;;18.56;72.47363;94865.63;;;;
2022/06/22 01:13:40;;;;;;;11.4;9.500002;;;;;;;18.56;72.47363;94865.63;;;;
2022/06/22 01:14:46;;;;;;;11.4;9.500002;;;;;;;18.56;72.47363;94865.63;;;;
2022/06/22 01:15:57;;;;;;;11.4;9.500002;;;;;;;18.56;72.47363;94865.63;;;;
2022/06/22 01:17:02;;;;;;;11.4;9.500002;;;;;;;18.56;72.47363;94865.63;;;;
2022/06/22 01:18:07;;;;;;;11.4;9.500002;;;;;;;18.56;72.47363;94865.63;;;;
2022/06/22 01:19:11;;;;;;;10.2;9.199999;;;;;;;18.57;73.15527;94848.51;;;;
2022/06/22 01:20:25;;;;;;;10.2;9.199999;;;;;;;18.57;73.15527;94848.51;;;;
2022/06/22 01:21:33;;;;;;;10.2;9.199999;;;;;;;18.57;73.15527;94848.51;;;;
2022/06/22 01:22:37;;;;;;;10.2;9.199999;;;;;;;18.57;73.15527;94848.51;;;;
2022/06/22 01:23:56;;;;;;;10.2;9.199999;;;;;;;18.57;73.15527;94848.51;;;;
2022/06/22 01:25:19;;;;;;;10.2;9.199999;;;;;;;18.57;73.15527;94848.51;;;;
2022/06/22 01:26:36;;;;;;;10.2;9.199999;;;;;;;18.57;73.15527;94848.51;;;;
2022/06/22 01:27:52;;;;;;;10.2;9.199999;;;;;;;18.57;73.15527;94848.51;;;;
2022/06/22 01:28:52;;;;;;;10.2;9.199999;;;;;;;18.57;73.15527;94848.51;;;;
2022/06/22 01:29:54;;;;;;;10.65;9.35;;;;;;;18.43;73.67773;94845.7;;;;
2022/06/22 01:30:58;;;;;;;10.65;9.35;;;;;;;18.43;73.67773;94845.7;;;;
2022/06/22 01:32:05;;;;;;;10.65;9.35;;;;;;;18.43;73.67773;94845.7;;;;
2022/06/22 01:33:14;;;;;;;10.65;9.35;;;;;;;18.43;73.67773;94845.7;;;;
2022/06/22 01:34:19;;;;;;;10.65;9.35;;;;;;;18.43;73.67773;94845.7;;;;
2022/06/22 01:35:20;;;;;;;10.65;9.35;;;;;;;18.43;73.67773;94845.7;;;;
2022/06/22 01:36:25;;;;;;;10.65;9.35;;;;;;;18.43;73.67773;94845.7;;;;
2022/06/22 01:37:29;;;;;;;10.65;9.35;;;;;;;18.43;73.67773;94845.7;;;;
2022/06/22 01:38:32;;;;;;;10.65;9.35;;;;;;;18.43;73.67773;94845.7;;;;
2022/06/22 01:39:37;;;;;;;10.65;9.35;;;;;;;18.43;73.67773;94845.7;;;;
2022/06/22 01:40:37;;;;;;;10.8;9.7;;;;;;;18.34;74.33105;94825.09;;;;
2022/06/22 01:41:45;;;;;;;10.8;9.7;;;;;;;18.34;74.33105;94825.09;;;;
2022/06/22 01:42:51;;;;;;;10.8;9.7;;;;;;;18.34;74.33105;94825.09;;;;
2022/06/22 01:43:59;;;;;;;10.8;9.7;;;;;;;18.34;74.33105;94825.09;;;;
2022/06/22 01:45:05;;;;;;;10.8;9.7;;;;;;;18.34;74.33105;94825.09;;;;
2022/06/22 01:46:16;;;;;;;10.8;9.7;;;;;;;18.34;74.33105;94825.09;;;;
2022/06/22 01:47:22;;;;;;;10.8;9.7;;;;;;;18.34;74.33105;94825.09;;;;
2022/06/22 01:48:29;;;;;;;10.8;9.7;;;;;;;18.34;74.33105;94825.09;;;;
2022/06/22 01:49:35;;;;;;;10.8;9.7;;;;;;;18.34;74.33105;94825.09;;;;
2022/06/22 01:50:40;;;;;;;10.8;9.7;;;;;;;18.34;74.33105;94825.09;;;;
2022/06/22 01:51:48;;;;;;;10.55;9.5;;;;;;;18.21;74.87988;94838.49;;;;
2022/06/22 01:52:51;;;;;;;10.55;9.5;;;;;;;18.21;74.87988;94838.49;;;;
2022/06/22 01:54:03;;;;;;;10.55;9.5;;;;;;;18.21;74.87988;94838.49;;;;
2022/06/22 01:55:10;;;;;;;10.55;9.5;;;;;;;18.21;74.87988;94838.49;;;;
2022/06/22 01:56:17;;;;;;;10.55;9.5;;;;;;;18.21;74.87988;94838.49;;;;
2022/06/22 01:57:25;;;;;;;10.55;9.5;;;;;;;18.21;74.87988;94838.49;;;;
2022/06/22 01:58:35;;;;;;;10.55;9.5;;;;;;;18.21;74.87988;94838.49;;;;
2022/06/22 01:59:47;;;;;;;10.55;9.5;;;;;;;18.21;74.87988;94838.49;;;;
2022/06/22 02:00:52;;;;;;;10.55;9.5;;;;;;;18.21;74.87988;94838.49;;;;
2022/06/22 02:01:57;;;;;;;10.7;9.650002;;;;;;;18.15;75.37402;94798.52;;;;
2022/06/22 02:03:01;;;;;;;10.7;9.650002;;;;;;;18.15;75.37402;94798.52;;;;
2022/06/22 02:04:12;;;;;;;10.7;9.650002;;;;;;;18.15;75.37402;94798.52;;;;
2022/06/22 02:05:18;;;;;;;10.7;9.650002;;;;;;;18.15;75.37402;94798.52;;;;
2022/06/22 02:11:44;;;;;;;10.7;9.650002;;;;;;;18.15;75.37402;94798.52;;;;
2022/06/22 02:12:51;;;;;;;10.25;9.25;;;;;;;18.03;75.85645;94810.02;;;;
2022/06/22 02:14:02;;;;;;;10.25;9.25;;;;;;;18.03;75.85645;94810.02;;;;
2022/06/22 02:15:10;;;;;;;10.25;9.25;;;;;;;18.03;75.85645;94810.02;;;;
2022/06/22 02:16:19;;;;;;;10.25;9.25;;;;;;;18.03;75.85645;94810.02;;;;
2022/06/22 02:17:24;;;;;;;10.25;9.25;;;;;;;18.03;75.85645;94810.02;;;;
2022/06/22 02:18:28;;;;;;;10.25;9.25;;;;;;;18.03;75.85645;94810.02;;;;
2022/06/22 02:19:35;;;;;;;10.25;9.25;;;;;;;18.03;75.85645;94810.02;;;;
2022/06/22 02:20:38;;;;;;;10.25;9.25;;;;;;;18.03;75.85645;94810.02;;;;
2022/06/22 02:21:40;;;;;;;10.25;9.25;;;;;;;18.03;75.85645;94810.02;;;;
2022/06/22 02:22:43;;;;;;;10.25;9.25;;;;;;;18.03;75.85645;94810.02;;;;
2022/06/22 02:23:45;;;;;;;8.949999;8.050001;;;;;;;18.01;76.26758;94802.95;;;;
2022/06/22 02:24:50;;;;;;;8.949999;8.050001;;;;;;;18.01;76.26758;94802.95;;;;
2022/06/22 02:25:50;;;;;;;8.949999;8.050001;;;;;;;18.01;76.26758;94802.95;;;;
2022/06/22 02:27:00;;;;;;;8.949999;8.050001;;;;;;;18.01;76.26758;94802.95;;;;
2022/06/22 02:28:06;;;;;;;8.949999;8.050001;;;;;;;18.01;76.26758;94802.95;;;;
2022/06/22 02:29:07;;;;;;;8.949999;8.050001;;;;;;;18.01;76.26758;94802.95;;;;
2022/06/22 02:30:08;;;;;;;8.949999;8.050001;;;;;;;18.01;76.26758;94802.95;;;;
2022/06/22 02:31:10;;;;;;;8.949999;8.050001;;;;;;;18.01;76.26758;94802.95;;;;
2022/06/22 02:32:10;;;;;;;8.949999;8.050001;;;;;;;18.01;76.26758;94802.95;;;;
2022/06/22 02:33:15;;;;;;;8.949999;8.050001;;;;;;;18.01;76.26758;94802.95;;;;
2022/06/22 02:34:15;;;;;;;8.4;7.35;;;;;;;17.93;76.58203;94811.36;;;;
2022/06/22 02:35:17;;;;;;;8.4;7.35;;;;;;;17.93;76.58203;94811.36;;;;
2022/06/22 02:36:17;;;;;;;8.4;7.35;;;;;;;17.93;76.58203;94811.36;;;;
2022/06/22 02:37:19;;;;;;;8.4;7.35;;;;;;;17.93;76.58203;94811.36;;;;
2022/06/22 02:38:25;;;;;;;8.4;7.35;;;;;;;17.93;76.58203;94811.36;;;;
2022/06/22 02:39:26;;;;;;;8.4;7.35;;;;;;;17.93;76.58203;94811.36;;;;
2022/06/22 02:40:29;;;;;;;8.4;7.35;;;;;;;17.93;76.58203;94811.36;;;;
2022/06/22 02:46:46;;;;;;;9.400001;7.849999;;;;;;;17.88;76.78027;94798.55;;;;
2022/06/22 02:47:47;;;;;;;9.400001;7.849999;;;;;;;17.88;76.78027;94798.55;;;;
2022/06/22 02:48:55;;;;;;;9.400001;7.849999;;;;;;;17.88;76.78027;94798.55;;;;
2022/06/22 02:50:01;;;;;;;9.400001;7.849999;;;;;;;17.88;76.78027;94798.55;;;;
2022/06/22 02:51:10;;;;;;;9.400001;7.849999;;;;;;;17.88;76.78027;94798.55;;;;
2022/06/22 02:52:17;;;;;;;9.400001;7.849999;;;;;;;17.88;76.78027;94798.55;;;;
2022/06/22 02:53:18;;;;;;;9.400001;7.849999;;;;;;;17.88;76.78027;94798.55;;;;
2022/06/22 02:54:21;;;;;;;9.400001;7.849999;;;;;;;17.88;76.78027;94798.55;;;;
2022/06/22 02:55:28;;;;;;;9.1;7.250001;;;;;;;17.71;77.04688;94798;;;;
2022/06/22 02:56:34;;;;;;;9.1;7.250001;;;;;;;17.71;77.04688;94798;;;;
2022/06/22 02:57:39;;;;;;;9.1;7.250001;;;;;;;17.71;77.04688;94798;;;;
2022/06/22 02:58:46;;;;;;;9.1;7.250001;;;;;;;17.71;77.04688;94798;;;;
2022/06/22 02:59:46;;;;;;;9.1;7.250001;;;;;;;17.71;77.04688;94798;;;;
2022/06/22 03:00:49;;;;;;;9.1;7.250001;;;;;;;17.71;77.04688;94798;;;;
2022/06/22 03:01:50;;;;;;;9.1;7.250001;;;;;;;17.71;77.04688;94798;;;;
2022/06/22 03:02:50;;;;;;;9.1;7.250001;;;;;;;17.71;77.04688;94798;;;;
2022/06/22 03:03:56;;;;;;;9.1;7.250001;;;;;;;17.71;77.04688;94798;;;;
2022/06/22 03:05:00;;;;;;;9.1;7.250001;;;;;;;17.71;77.04688;94798;;;;
2022/06/22 03:06:01;;;;;;;8.750001;7.15;;;;;;;17.59;77.44043;94778.77;;;;
2022/06/22 03:07:02;;;;;;;8.750001;7.15;;;;;;;17.59;77.44043;94778.77;;;;
2022/06/22 03:08:04;;;;;;;8.750001;7.15;;;;;;;17.59;77.44043;94778.77;;;;
2022/06/22 03:09:07;;;;;;;8.750001;7.15;;;;;;;17.59;77.44043;94778.77;;;;
2022/06/22 03:10:08;;;;;;;8.750001;7.15;;;;;;;17.59;77.44043;94778.77;;;;
2022/06/22 03:11:22;;;;;;;8.750001;7.15;;;;;;;17.59;77.44043;94778.77;;;;
2022/06/22 03:12:22;;;;;;;8.750001;7.15;;;;;;;17.59;77.44043;94778.77;;;;
2022/06/22 03:13:23;;;;;;;8.750001;7.15;;;;;;;17.59;77.44043;94778.77;;;;
2022/06/22 03:14:26;;;;;;;8.750001;7.15;;;;;;;17.59;77.44043;94778.77;;;;
2022/06/22 03:15:30;;;;;;;8.750001;7.15;;;;;;;17.59;77.44043;94778.77;;;;
2022/06/22 03:16:36;;;;;;;7.900001;6.900001;;;;;;;17.49;77.80469;94782.76;;;;
2022/06/22 03:17:40;;;;;;;7.900001;6.900001;;;;;;;17.49;77.80469;94782.76;;;;
2022/06/22 03:18:42;;;;;;;7.900001;6.900001;;;;;;;17.49;77.80469;94782.76;;;;
2022/06/22 03:19:43;;;;;;;7.900001;6.900001;;;;;;;17.49;77.80469;94782.76;;;;
2022/06/22 03:20:48;;;;;;;7.900001;6.900001;;;;;;;17.49;77.80469;94782.76;;;;
2022/06/22 03:21:52;;;;;;;7.900001;6.900001;;;;;;;17.49;77.80469;94782.76;;;;
2022/06/22 03:22:52;;;;;;;7.900001;6.900001;;;;;;;17.49;77.80469;94782.76;;;;
2022/06/22 03:23:58;;;;;;;7.900001;6.900001;;;;;;;17.49;77.80469;94782.76;;;;
2022/06/22 03:25:04;;;;;;;7.900001;6.900001;;;;;;;17.49;77.80469;94782.76;;;;
2022/06/22 03:26:10;;;;;;;7.900001;6.900001;;;;;;;17.49;77.80469;94782.76;;;;
2022/06/22 03:27:16;;;;;;;7.700001;6.900001;;;;;;;17.58;78.00684;94774.48;;;;
2022/06/22 03:28:20;;;;;;;7.700001;6.900001;;;;;;;17.58;78.00684;94774.48;;;;
2022/06/22 03:29:30;;;;;;;7.700001;6.900001;;;;;;;17.58;78.00684;94774.48;;;;
2022/06/22 03:30:35;;;;;;;7.700001;6.900001;;;;;;;17.58;78.00684;94774.48;;;;
2022/06/22 03:31:44;;;;;;;7.700001;6.900001;;;;;;;17.58;78.00684;94774.48;;;;
2022/06/22 03:32:48;;;;;;;7.700001;6.900001;;;;;;;17.58;78.00684;94774.48;;;;
2022/06/22 03:33:55;;;;;;;7.700001;6.900001;;;;;;;17.58;78.00684;94774.48;;;;
2022/06/22 03:35:02;;;;;;;7.700001;6.900001;;;;;;;17.58;78.00684;94774.48;;;;
2022/06/22 03:36:10;;;;;;;7.700001;6.900001;;;;;;;17.58;78.00684;94774.48;;;;
2022/06/22 03:37:16;;;;;;;7.700001;6.900001;;;;;;;17.58;78.00684;94774.48;;;;
2022/06/22 03:38:21;;;;;;;8.299999;6.5;;;;;;;17.52;78.11914;94791.44;;;;
2022/06/22 03:39:27;;;;;;;8.299999;6.5;;;;;;;17.52;78.11914;94791.44;;;;
2022/06/22 03:40:30;;;;;;;8.299999;6.5;;;;;;;17.52;78.11914;94791.44;;;;
2022/06/22 03:41:36;;;;;;;8.299999;6.5;;;;;;;17.52;78.11914;94791.44;;;;
2022/06/22 03:42:42;;;;;;;8.299999;6.5;;;;;;;17.52;78.11914;94791.44;;;;
2022/06/22 03:43:46;;;;;;;8.299999;6.5;;;;;;;17.52;78.11914;94791.44;;;;
2022/06/22 03:44:52;;;;;;;8.299999;6.5;;;;;;;17.52;78.11914;94791.44;;;;
2022/06/22 03:45:56;;;;;;;8.299999;6.5;;;;;;;17.52;78.11914;94791.44;;;;
2022/06/22 03:47:04;;;;;;;8.299999;6.5;;;;;;;17.52;78.11914;94791.44;;;;
2022/06/22 03:48:11;;;;;;;8.299999;6.5;;;;;;;17.52;78.11914;94791.44;;;;
2022/06/22 03:49:15;;;;;;;7.699999;5.85;;;;;;;17.71;78.41406;94804.57;;;;
2022/06/22 03:50:23;;;;;;;7.699999;5.85;;;;;;;17.71;78.41406;94804.57;;;;
2022/06/22 03:51:33;;;;;;;7.699999;5.85;;;;;;;17.71;78.41406;94804.57;;;;
2022/06/22 03:52:40;;;;;;;7.699999;5.85;;;;;;;17.71;78.41406;94804.57;;;;
2022/06/22 03:53:47;;;;;;;7.699999;5.85;;;;;;;17.71;78.41406;94804.57;;;;
2022/06/22 03:54:52;;;;;;;7.699999;5.85;;;;;;;17.71;78.41406;94804.57;;;;
2022/06/22 03:56:00;;;;;;;7.699999;5.85;;;;;;;17.71;78.41406;94804.57;;;;
2022/06/22 03:57:07;;;;;;;7.699999;5.85;;;;;;;17.71;78.41406;94804.57;;;;
2022/06/22 03:58:11;;;;;;;7.699999;5.85;;;;;;;17.71;78.41406;94804.57;;;;
2022/06/22 03:59:13;;;;;;;9.25;5.65;;;;;;;17.94;78.27832;94791.19;;;;
2022/06/22 04:00:14;;;;;;;9.25;5.65;;;;;;;17.94;78.27832;94791.19;;;;
2022/06/22 04:01:16;;;;;;;9.25;5.65;;;;;;;17.94;78.27832;94791.19;;;;
2022/06/22 04:02:19;;;;;;;9.25;5.65;;;;;;;17.94;78.27832;94791.19;;;;
2022/06/22 04:03:19;;;;;;;9.25;5.65;;;;;;;17.94;78.27832;94791.19;;;;
2022/06/22 04:04:23;;;;;;;9.25;5.65;;;;;;;17.94;78.27832;94791.19;;;;
2022/06/22 04:05:24;;;;;;;9.25;5.65;;;;;;;17.94;78.27832;94791.19;;;;
2022/06/22 04:06:31;;;;;;;9.25;5.65;;;;;;;17.94;78.27832;94791.19;;;;
2022/06/22 04:07:37;;;;;;;9.25;5.65;;;;;;;17.94;78.27832;94791.19;;;;
2022/06/22 04:08:39;;;;;;;9.25;5.65;;;;;;;17.94;78.27832;94791.19;;;;
2022/06/22 04:09:41;;;;;;;9.25;5.65;;;;;;;17.94;78.27832;94791.19;;;;
2022/06/22 04:10:48;;;;;;;7.2;5.15;;;;;;;18.15;78.34961;94791.02;;;;
2022/06/22 04:11:53;;;;;;;7.2;5.15;;;;;;;18.15;78.34961;94791.02;;;;
2022/06/22 04:13:00;;;;;;;7.2;5.15;;;;;;;18.15;78.34961;94791.02;;;;
2022/06/22 04:14:05;;;;;;;7.2;5.15;;;;;;;18.15;78.34961;94791.02;;;;
2022/06/22 04:15:13;;;;;;;7.2;5.15;;;;;;;18.15;78.34961;94791.02;;;;
2022/06/22 04:16:23;;;;;;;7.2;5.15;;;;;;;18.15;78.34961;94791.02;;;;
2022/06/22 04:17:30;;;;;;;7.2;5.15;;;;;;;18.15;78.34961;94791.02;;;;
2022/06/22 04:18:35;;;;;;;7.2;5.15;;;;;;;18.15;78.34961;94791.02;;;;
2022/06/22 04:19:41;;;;;;;7.2;5.15;;;;;;;18.15;78.34961;94791.02;;;;
2022/06/22 04:20:54;;;;;;;7.5;5.15;;;;;;;18.36;78.15625;94807.7;;;;
2022/06/22 04:22:00;;;;;;;7.5;5.15;;;;;;;18.36;78.15625;94807.7;;;;
2022/06/22 04:23:04;;;;;;;7.5;5.15;;;;;;;18.36;78.15625;94807.7;;;;
2022/06/22 04:24:06;;;;;;;7.5;5.15;;;;;;;18.36;78.15625;94807.7;;;;
2022/06/22 04:25:11;;;;;;;7.5;5.15;;;;;;;18.36;78.15625;94807.7;;;;
2022/06/22 04:26:18;;;;;;;7.5;5.15;;;;;;;18.36;78.15625;94807.7;;;;
2022/06/22 04:27:22;;;;;;;7.5;5.15;;;;;;;18.36;78.15625;94807.7;;;;
2022/06/22 04:28:27;;;;;;;7.5;5.15;;;;;;;18.36;78.15625;94807.7;;;;
2022/06/22 04:29:32;;;;;;;7.5;5.15;;;;;;;18.36;78.15625;94807.7;;;;
2022/06/22 04:30:38;;;;;;;7.5;5.15;;;;;;;18.36;78.15625;94807.7;;;;
2022/06/22 04:31:43;;;;;;;7.95;5.750001;;;;;;;18.77;78.16309;94799.03;;;;
2022/06/22 04:32:52;;;;;;;7.95;5.750001;;;;;;;18.77;78.16309;94799.03;;;;
2022/06/22 04:34:04;;;;;;;7.95;5.750001;;;;;;;18.77;78.16309;94799.03;;;;
2022/06/22 04:35:07;;;;;;;7.95;5.750001;;;;;;;18.77;78.16309;94799.03;;;;
2022/06/22 04:36:25;;;;;;;7.95;5.750001;;;;;;;18.77;78.16309;94799.03;;;;
2022/06/22 04:37:33;;;;;;;7.95;5.750001;;;;;;;18.77;78.16309;94799.03;;;;
2022/06/22 04:38:40;;;;;;;7.95;5.750001;;;;;;;18.77;78.16309;94799.03;;;;
2022/06/22 04:39:47;;;;;;;7.95;5.750001;;;;;;;18.77;78.16309;94799.03;;;;
2022/06/22 04:40:53;;;;;;;7.95;5.750001;;;;;;;18.77;78.16309;94799.03;;;;
2022/06/22 04:42:00;;;;;;;7.95;5.750001;;;;;;;18.77;78.16309;94799.03;;;;
2022/06/22 04:43:03;;;;;;;7.95;5.750001;;;;;;;18.77;78.16309;94799.03;;;;
2022/06/22 04:44:05;;;;;;;7.95;5.750001;;;;;;;18.77;78.16309;94799.03;;;;
2022/06/22 04:45:11;;;;;;;7.95;5.750001;;;;;;;18.77;78.16309;94799.03;;;;
2022/06/22 04:46:27;;;;;;;7.95;5.750001;;;;;;;18.77;78.16309;94799.03;;;;
2022/06/22 04:47:34;;;;;;;7.95;5.750001;;;;;;;18.77;78.16309;94799.03;;;;
2022/06/22 04:48:35;;;;;;;7.95;5.750001;;;;;;;18.77;78.16309;94799.03;;;;
2022/06/22 04:49:38;;;;;;;7.95;5.750001;;;;;;;18.77;78.16309;94799.03;;;;
2022/06/22 04:50:47;;;;;;;7.95;5.750001;;;;;;;18.77;78.16309;94799.03;;;;
2022/06/22 04:51:52;;;;;;;7.95;5.750001;;;;;;;18.77;78.16309;94799.03;;;;
2022/06/22 04:52:57;;;;;;;8.65;5.8;;;;;;;19.63;77.56641;94813.56;;;;
2022/06/22 04:53:59;;;;;;;8.65;5.8;;;;;;;19.63;77.56641;94813.56;;;;
2022/06/22 04:55:05;;;;;;;8.65;5.8;;;;;;;19.63;77.56641;94813.56;;;;
2022/06/22 04:56:11;;;;;;;8.65;5.8;;;;;;;19.63;77.56641;94813.56;;;;
2022/06/22 04:57:16;;;;;;;8.65;5.8;;;;;;;19.63;77.56641;94813.56;;;;
2022/06/22 04:58:21;;;;;;;8.65;5.8;;;;;;;19.63;77.56641;94813.56;;;;
2022/06/22 04:59:32;;;;;;;8.65;5.8;;;;;;;19.63;77.56641;94813.56;;;;
2022/06/22 05:00:34;;;;;;;8.65;5.8;;;;;;;19.63;77.56641;94813.56;;;;
2022/06/22 05:01:34;;;;;;;8.65;5.8;;;;;;;19.63;77.56641;94813.56;;;;
2022/06/22 05:02:46;;;;;;;8.65;5.8;;;;;;;19.63;77.56641;94813.56;;;;
2022/06/22 05:03:54;;;;;;;8.45;5.5;;;;;;;19.94;76.96289;94836.41;;;;
2022/06/22 05:04:58;;;;;;;8.45;5.5;;;;;;;19.94;76.96289;94836.41;;;;
2022/06/22 05:06:04;;;;;;;8.45;5.5;;;;;;;19.94;76.96289;94836.41;;;;
2022/06/22 05:07:12;;;;;;;8.45;5.5;;;;;;;19.94;76.96289;94836.41;;;;
2022/06/22 05:08:30;;;;;;;8.45;5.5;;;;;;;19.94;76.96289;94836.41;;;;
2022/06/22 05:09:36;;;;;;;8.45;5.5;;;;;;;19.94;76.96289;94836.41;;;;
2022/06/22 05:10:42;;;;;;;8.45;5.5;;;;;;;19.94;76.96289;94836.41;;;;
2022/06/22 05:11:47;;;;;;;8.45;5.5;;;;;;;19.94;76.96289;94836.41;;;;
2022/06/22 05:12:48;;;;;;;8.45;5.5;;;;;;;19.94;76.96289;94836.41;;;;
2022/06/22 05:14:01;;;;;;;8.75;5.15;;;;;;;20.25;76.50879;94844.65;;;;
2022/06/22 05:15:04;;;;;;;8.75;5.15;;;;;;;20.25;76.50879;94844.65;;;;
2022/06/22 05:16:08;;;;;;;8.75;5.15;;;;;;;20.25;76.50879;94844.65;;;;
2022/06/22 05:17:14;;;;;;;8.75;5.15;;;;;;;20.25;76.50879;94844.65;;;;
2022/06/22 05:18:23;;;;;;;8.75;5.15;;;;;;;20.25;76.50879;94844.65;;;;
2022/06/22 05:19:26;;;;;;;8.75;5.15;;;;;;;20.25;76.50879;94844.65;;;;
2022/06/22 05:20:36;;;;;;;8.75;5.15;;;;;;;20.25;76.50879;94844.65;;;;
2022/06/22 05:21:44;;;;;;;8.75;5.15;;;;;;;20.25;76.50879;94844.65;;;;
2022/06/22 05:22:45;;;;;;;8.75;5.15;;;;;;;20.25;76.50879;94844.65;;;;
2022/06/22 05:23:49;;;;;;;8.75;5.15;;;;;;;20.25;76.50879;94844.65;;;;
2022/06/22 05:24:53;;;;;;;9.349998;5.349999;;;;;;;20.34;76.20605;94828.99;;;;
2022/06/22 05:25:57;;;;;;;9.349998;5.349999;;;;;;;20.34;76.20605;94828.99;;;;
2022/06/22 05:27:01;;;;;;;9.349998;5.349999;;;;;;;20.34;76.20605;94828.99;;;;
2022/06/22 05:28:07;;;;;;;9.349998;5.349999;;;;;;;20.34;76.20605;94828.99;;;;
2022/06/22 05:29:11;;;;;;;9.349998;5.349999;;;;;;;20.34;76.20605;94828.99;;;;
2022/06/22 05:30:15;;;;;;;9.349998;5.349999;;;;;;;20.34;76.20605;94828.99;;;;
2022/06/22 05:31:15;;;;;;;9.349998;5.349999;;;;;;;20.34;76.20605;94828.99;;;;
2022/06/22 05:32:21;;;;;;;9.349998;5.349999;;;;;;;20.34;76.20605;94828.99;;;;
2022/06/22 05:33:27;;;;;;;9.349998;5.349999;;;;;;;20.34;76.20605;94828.99;;;;
2022/06/22 05:34:28;;;;;;;9.349998;5.349999;;;;;;;20.34;76.20605;94828.99;;;;
2022/06/22 05:35:31;;;;;;;9.949999;5.5;;;;;;;20.37;75.95898;94826.14;;;;
2022/06/22 05:36:36;;;;;;;9.949999;5.5;;;;;;;20.37;75.95898;94826.14;;;;
2022/06/22 05:37:42;;;;;;;9.949999;5.5;;;;;;;20.37;75.95898;94826.14;;;;
2022/06/22 05:38:47;;;;;;;9.949999;5.5;;;;;;;20.37;75.95898;94826.14;;;;
2022/06/22 05:39:52;;;;;;;9.949999;5.5;;;;;;;20.37;75.95898;94826.14;;;;
2022/06/22 05:40:55;;;;;;;9.949999;5.5;;;;;;;20.37;75.95898;94826.14;;;;
2022/06/22 05:41:56;;;;;;;9.949999;5.5;;;;;;;20.37;75.95898;94826.14;;;;
2022/06/22 05:42:57;;;;;;;9.949999;5.5;;;;;;;20.37;75.95898;94826.14;;;;
2022/06/22 05:43:58;;;;;;;9.949999;5.5;;;;;;;20.37;75.95898;94826.14;;;;
2022/06/22 05:45:04;;;;;;;9.949999;5.5;;;;;;;20.37;75.95898;94826.14;;;;
2022/06/22 05:46:13;;;;;;;11.85;5.5;;;;;;;20.78;75.32324;94793.45;;;;
2022/06/22 05:47:15;;;;;;;11.85;5.5;;;;;;;20.78;75.32324;94793.45;;;;
2022/06/22 05:48:23;;;;;;;11.85;5.5;;;;;;;20.78;75.32324;94793.45;;;;
2022/06/22 05:49:26;;;;;;;11.85;5.5;;;;;;;20.78;75.32324;94793.45;;;;
2022/06/22 05:50:30;;;;;;;11.85;5.5;;;;;;;20.78;75.32324;94793.45;;;;
2022/06/22 05:51:37;;;;;;;11.85;5.5;;;;;;;20.78;75.32324;94793.45;;;;
2022/06/22 05:52:44;;;;;;;11.85;5.5;;;;;;;20.78;75.32324;94793.45;;;;
2022/06/22 05:53:49;;;;;;;11.85;5.5;;;;;;;20.78;75.32324;94793.45;;;;
2022/06/22 05:54:54;;;;;;;11.85;5.5;;;;;;;20.78;75.32324;94793.45;;;;
2022/06/22 05:56:00;;;;;;;11.85;5.5;;;;;;;20.78;75.32324;94793.45;;;;
2022/06/22 05:57:09;;;;;;;11.85;5.5;;;;;;;20.78;75.32324;94793.45;;;;
2022/06/22 05:58:17;;;;;;;11.85;5.5;;;;;;;20.78;75.32324;94793.45;;;;
2022/06/22 05:59:23;;;;;;;11.85;5.5;;;;;;;20.78;75.32324;94793.45;;;;
2022/06/22 06:00:28;;;;;;;11.85;5.5;;;;;;;20.78;75.32324;94793.45;;;;
2022/06/22 06:01:35;;;;;;;11.85;5.5;;;;;;;20.78;75.32324;94793.45;;;;
2022/06/22 06:02:43;;;;;;;11.85;5.5;;;;;;;20.78;75.32324;94793.45;;;;
2022/06/22 06:03:49;;;;;;;11.85;5.5;;;;;;;20.78;75.32324;94793.45;;;;
2022/06/22 06:04:59;;;;;;;11.85;5.5;;;;;;;20.78;75.32324;94793.45;;;;
2022/06/22 06:06:04;;;;;;;11.85;5.5;;;;;;;20.78;75.32324;94793.45;;;;
2022/06/22 06:07:11;;;;;;;11.85;5.5;;;;;;;20.78;75.32324;94793.45;;;;
2022/06/22 06:08:28;;;;;;;9.55;4.700001;;;;;;;22.33;72.66602;94796.56;;;;
2022/06/22 06:09:39;;;;;;;9.55;4.700001;;;;;;;22.33;72.66602;94796.56;;;;
2022/06/22 06:10:40;;;;;;;9.55;4.700001;;;;;;;22.33;72.66602;94796.56;;;;
2022/06/22 06:11:43;;;;;;;9.55;4.700001;;;;;;;22.33;72.66602;94796.56;;;;
2022/06/22 06:12:48;;;;;;;9.55;4.700001;;;;;;;22.33;72.66602;94796.56;;;;